Time;durP1;ratioP1;P1;durP2;ratioP2;P2;SDS_P1;SDS_P2;PMS_P1;PMS_P2;Temp;Humidity;BMP_temperature;BMP_pressure;BME280_temperature;BME280_humidity;BME280_pressure;Samples;Min_cycle;Max_cycle;Signal;HPM_P1;HPM_P2
2022/02/12 00:00:15;;;;;;;18.07;5.77;;;3.20;99.90;;;;;;5048672;28;20512;-77
2022/02/12 00:02:41;;;;;;;14.23;5.67;;;3.10;99.90;;;;;;5048352;28;20111;-77
2022/02/12 00:05:08;;;;;;;17.23;5.73;;;3.10;99.90;;;;;;5047176;28;20029;-78
2022/02/12 00:07:35;;;;;;;17.83;5.50;;;3.00;99.90;;;;;;5047425;28;20037;-77
2022/02/12 00:10:01;;;;;;;23.17;6.27;;;3.10;99.90;;;;;;5046588;28;20037;-78
2022/02/12 00:12:26;;;;;;;19.57;5.87;;;3.00;99.90;;;;;;5049066;28;20119;-80
2022/02/12 00:14:55;;;;;;;14.57;4.37;;;3.10;99.90;;;;;;5048320;28;20037;-77
2022/02/12 00:17:22;;;;;;;14.70;4.28;;;3.20;99.90;;;;;;5048914;28;20410;-77
2022/02/12 00:19:48;;;;;;;16.50;4.73;;;3.20;99.90;;;;;;5048635;28;20452;-77
2022/02/12 00:22:14;;;;;;;15.17;4.57;;;3.20;99.90;;;;;;5050834;28;20037;-77
2022/02/12 00:24:39;;;;;;;12.40;3.80;;;3.30;99.90;;;;;;5051058;28;20028;-78
2022/02/12 00:27:05;;;;;;;10.63;3.87;;;3.40;99.90;;;;;;5051290;28;20443;-77
2022/02/12 00:29:31;;;;;;;16.30;4.07;;;3.40;99.90;;;;;;5050946;28;20056;-77
2022/02/12 00:31:57;;;;;;;13.90;3.83;;;3.50;99.90;;;;;;5052620;28;20082;-78
2022/02/12 00:34:22;;;;;;;11.33;3.37;;;3.50;99.90;;;;;;5052045;28;20108;-77
2022/02/12 00:36:48;;;;;;;11.97;3.67;;;3.40;99.90;;;;;;5052320;28;20025;-77
2022/02/12 00:39:14;;;;;;;13.57;3.93;;;3.40;99.90;;;;;;5051584;28;20060;-77
2022/02/12 00:41:40;;;;;;;7.77;3.33;;;3.40;99.90;;;;;;5051731;28;20029;-77
2022/02/12 00:44:06;;;;;;;13.20;3.87;;;3.30;99.90;;;;;;5050527;28;20087;-77
2022/02/12 00:46:32;;;;;;;10.73;3.03;;;3.40;99.90;;;;;;5051851;28;20033;-77
2022/02/12 00:48:58;;;;;;;17.10;4.20;;;3.40;99.90;;;;;;5050771;28;20099;-77
2022/02/12 00:51:25;;;;;;;16.53;4.47;;;3.20;99.90;;;;;;5052084;28;20040;-77
2022/02/12 00:53:52;;;;;;;13.73;4.00;;;3.10;99.90;;;;;;5051423;28;20029;-77
2022/02/12 00:56:17;;;;;;;17.30;5.13;;;3.10;99.90;;;;;;5050860;28;20036;-78
2022/02/12 00:58:43;;;;;;;14.07;4.30;;;3.10;99.90;;;;;;5051727;28;20021;-77
2022/02/12 01:01:09;;;;;;;11.93;4.23;;;3.10;99.90;;;;;;5051596;28;20021;-77
2022/02/12 01:03:34;;;;;;;11.10;4.53;;;3.00;99.90;;;;;;5051777;28;20120;-77
2022/02/12 01:06:00;;;;;;;13.50;4.07;;;3.10;99.90;;;;;;5051734;28;20060;-77
2022/02/12 01:08:26;;;;;;;14.67;3.40;;;3.10;99.90;;;;;;5051630;28;20456;-78
2022/02/12 01:10:52;;;;;;;14.20;3.70;;;3.10;99.90;;;;;;5050539;28;20080;-77
2022/02/12 01:13:18;;;;;;;12.87;3.50;;;3.00;99.90;;;;;;5051545;28;20043;-77
2022/02/12 01:15:44;;;;;;;12.20;3.77;;;3.00;99.90;;;;;;5051568;28;20452;-78
2022/02/12 01:18:11;;;;;;;14.33;4.10;;;3.00;99.90;;;;;;5051936;28;20033;-77
2022/02/12 01:20:39;;;;;;;16.00;3.83;;;3.00;99.90;;;;;;5050178;28;20115;-77
2022/02/12 01:23:05;;;;;;;15.17;4.13;;;3.10;99.90;;;;;;5051251;28;20119;-78
2022/02/12 01:25:31;;;;;;;11.13;3.70;;;3.10;99.90;;;;;;5050140;28;20118;-77
2022/02/12 01:27:57;;;;;;;10.50;3.87;;;3.10;99.90;;;;;;5051374;28;20041;-77
2022/02/12 01:30:23;;;;;;;12.83;4.40;;;3.10;99.90;;;;;;5050972;28;20102;-77
2022/02/12 01:32:49;;;;;;;14.83;3.73;;;3.10;99.90;;;;;;5051124;28;20029;-77
2022/02/12 01:35:15;;;;;;;15.30;4.70;;;3.10;99.90;;;;;;5050618;28;20120;-77
2022/02/12 01:37:41;;;;;;;18.53;4.67;;;3.00;99.90;;;;;;5050901;28;20448;-77
2022/02/12 01:40:08;;;;;;;16.13;4.63;;;2.90;99.90;;;;;;5049964;28;20104;-77
2022/02/12 01:42:34;;;;;;;13.63;4.00;;;2.80;99.90;;;;;;5050930;28;20108;-77
2022/02/12 01:45:01;;;;;;;14.70;4.03;;;2.80;99.90;;;;;;5050106;28;20473;-78
2022/02/12 01:47:27;;;;;;;17.33;4.73;;;2.80;99.90;;;;;;5050695;28;20540;-77
2022/02/12 01:49:54;;;;;;;17.93;4.73;;;2.70;99.90;;;;;;5050376;28;20029;-77
2022/02/12 01:52:21;;;;;;;17.20;4.57;;;2.70;99.90;;;;;;5050671;28;20047;-77
2022/02/12 01:54:48;;;;;;;16.20;4.13;;;2.70;99.90;;;;;;5049055;28;20032;-77
2022/02/12 01:57:14;;;;;;;13.40;4.60;;;2.60;99.90;;;;;;5050573;28;20680;-77
2022/02/12 01:59:42;;;;;;;13.03;4.20;;;2.60;99.90;;;;;;5050316;28;20078;-77
2022/02/12 02:02:09;;;;;;;18.50;4.22;;;2.60;99.90;;;;;;5050667;28;20104;-77
2022/02/12 02:04:38;;;;;;;13.37;4.20;;;2.60;99.90;;;;;;5049876;28;20481;-77
2022/02/12 02:07:04;;;;;;;14.68;4.65;;;2.70;99.90;;;;;;5050755;28;20028;-77
2022/02/12 02:09:30;;;;;;;22.67;5.10;;;2.70;99.90;;;;;;5049549;28;20386;-77
2022/02/12 02:11:56;;;;;;;13.73;5.10;;;2.60;99.90;;;;;;5050609;28;20737;-77
2022/02/12 02:14:32;;;;;;;19.30;4.47;;;2.70;99.90;;;;;;5048737;28;20078;-77
2022/02/12 02:16:58;;;;;;;14.60;4.40;;;2.70;99.90;;;;;;5048977;28;20113;-77
2022/02/12 02:19:23;;;;;;;14.90;5.10;;;2.70;99.90;;;;;;5050218;28;20076;-77
2022/02/12 02:21:52;;;;;;;12.20;4.60;;;2.70;99.90;;;;;;5050132;28;20087;-77
2022/02/12 02:24:19;;;;;;;23.10;4.80;;;2.80;99.90;;;;;;5049724;28;20059;-77
2022/02/12 02:26:45;;;;;;;18.83;4.53;;;2.80;99.90;;;;;;5049413;28;20040;-77
2022/02/12 02:29:11;;;;;;;17.90;4.97;;;2.70;99.90;;;;;;5050007;28;20526;-77
2022/02/12 02:31:37;;;;;;;15.83;4.53;;;2.80;99.90;;;;;;5049966;28;20045;-77
2022/02/12 02:34:08;;;;;;;12.90;4.13;;;2.90;99.90;;;;;;5049788;28;20028;-77
2022/02/12 02:36:33;;;;;;;16.27;4.60;;;2.90;99.90;;;;;;5048534;28;20035;-77
2022/02/12 02:38:59;;;;;;;15.47;5.07;;;2.90;99.90;;;;;;5049800;28;20384;-77
2022/02/12 02:41:25;;;;;;;12.63;4.80;;;2.90;99.90;;;;;;5047252;28;20029;-77
2022/02/12 02:43:51;;;;;;;14.40;4.20;;;2.90;99.90;;;;;;5049190;28;20052;-77
2022/02/12 02:46:18;;;;;;;13.70;4.20;;;2.80;99.90;;;;;;5049302;28;20033;-77
2022/02/12 02:48:44;;;;;;;13.07;4.30;;;2.70;99.90;;;;;;5049632;28;20036;-77
2022/02/12 02:56:39;;;;;;;13.70;4.57;;;2.80;99.90;;;;;;5048902;28;20047;-77
2022/02/12 02:59:06;;;;;;;21.40;4.57;;;2.80;99.90;;;;;;5048194;28;20476;-77
2022/02/12 03:01:32;;;;;;;14.97;4.47;;;2.80;99.90;;;;;;5049423;28;20040;-77
2022/02/12 03:03:58;;;;;;;15.33;4.33;;;2.80;99.90;;;;;;5049139;28;20555;-77
2022/02/12 03:06:25;;;;;;;14.43;4.33;;;2.80;99.90;;;;;;5049287;28;20072;-77
2022/02/12 03:08:52;;;;;;;14.83;4.30;;;2.80;99.90;;;;;;5047778;28;20550;-77
2022/02/12 03:11:18;;;;;;;13.60;4.07;;;2.80;99.90;;;;;;5048071;28;20465;-77
2022/02/12 03:13:45;;;;;;;12.47;4.20;;;2.80;99.90;;;;;;5049198;28;20025;-77
2022/02/12 03:16:11;;;;;;;15.27;4.67;;;2.80;99.90;;;;;;5049127;28;20028;-77
2022/02/12 03:18:39;;;;;;;15.13;4.23;;;2.80;99.90;;;;;;5049274;28;20075;-77
2022/02/12 03:21:06;;;;;;;10.73;4.27;;;2.80;99.90;;;;;;5049146;28;20021;-77
2022/02/12 03:23:32;;;;;;;13.43;4.10;;;2.80;99.90;;;;;;5049103;28;20108;-77
2022/02/12 03:25:58;;;;;;;15.60;4.10;;;2.80;99.90;;;;;;5048005;28;20036;-77
2022/02/12 03:28:24;;;;;;;12.93;3.90;;;2.80;99.90;;;;;;5049190;28;20033;-77
2022/02/12 03:30:50;;;;;;;11.87;3.73;;;2.80;99.90;;;;;;5048931;28;20100;-77
2022/02/12 03:33:16;;;;;;;14.07;4.07;;;2.80;99.90;;;;;;5048951;28;20056;-77
2022/02/12 03:35:43;;;;;;;17.77;5.43;;;2.80;99.90;;;;;;5048845;28;20025;-77
2022/02/12 03:38:17;;;;;;;17.00;5.63;;;2.70;99.90;;;;;;5049029;28;20078;-77
2022/02/12 03:40:46;;;;;;;12.07;4.00;;;2.70;99.90;;;;;;5048118;28;20029;-77
2022/02/12 03:43:12;;;;;;;16.37;4.83;;;2.80;99.90;;;;;;5049078;28;20085;-77
2022/02/12 03:45:39;;;;;;;14.57;4.50;;;2.80;99.90;;;;;;5048742;28;20083;-77
2022/02/12 03:48:06;;;;;;;15.70;4.40;;;2.80;99.90;;;;;;5048751;28;20068;-77
2022/02/12 03:50:33;;;;;;;15.03;4.30;;;2.80;99.90;;;;;;5048641;28;20033;-82
2022/02/12 03:53:00;;;;;;;12.30;3.90;;;2.80;99.90;;;;;;5047756;28;20039;-80
2022/02/12 03:55:26;;;;;;;14.73;3.93;;;2.80;99.90;;;;;;5048448;28;20032;-77
2022/02/12 03:57:52;;;;;;;12.67;4.03;;;2.80;99.90;;;;;;5053125;28;20033;-77
2022/02/12 04:00:19;;;;;;;16.10;4.13;;;2.80;99.90;;;;;;5052757;28;20469;-77
2022/02/12 04:02:45;;;;;;;15.57;3.97;;;2.80;99.90;;;;;;5052962;28;20393;-77
2022/02/12 04:05:13;;;;;;;11.90;3.97;;;2.70;99.90;;;;;;5051012;28;20033;-77
2022/02/12 04:07:41;;;;;;;19.88;4.13;;;2.70;99.90;;;;;;5052620;28;20174;-77
2022/02/12 04:10:09;;;;;;;19.90;4.57;;;2.60;99.90;;;;;;5051610;28;20033;-77
2022/02/12 04:12:35;;;;;;;17.70;4.67;;;2.60;99.90;;;;;;5052774;28;20033;-77
2022/02/12 04:15:01;;;;;;;16.03;4.07;;;2.80;99.90;;;;;;5052194;28;20378;-77
2022/02/12 04:17:27;;;;;;;11.23;4.17;;;2.70;99.90;;;;;;5052517;28;20021;-77
2022/02/12 04:19:54;;;;;;;16.77;4.53;;;2.70;99.90;;;;;;5052185;28;20090;-77
2022/02/12 04:22:20;;;;;;;14.53;4.10;;;2.70;99.90;;;;;;5052558;28;20025;-77
2022/02/12 04:24:45;;;;;;;17.17;3.90;;;2.70;99.90;;;;;;5050990;28;20051;-77
2022/02/12 04:27:11;;;;;;;15.47;4.47;;;2.60;99.90;;;;;;5052282;28;20634;-77
2022/02/12 04:29:40;;;;;;;20.03;4.30;;;2.60;99.90;;;;;;5052005;28;20067;-77
2022/02/12 04:32:06;;;;;;;14.57;4.00;;;2.60;99.90;;;;;;5052155;28;20043;-77
2022/02/12 04:34:32;;;;;;;16.93;3.80;;;2.60;99.90;;;;;;5051542;28;20032;-77
2022/02/12 04:36:58;;;;;;;15.93;3.90;;;2.70;99.90;;;;;;5052120;28;20021;-77
2022/02/12 04:39:23;;;;;;;13.57;4.20;;;2.70;99.90;;;;;;5051716;28;20422;-77
2022/02/12 04:41:49;;;;;;;13.63;3.67;;;2.70;99.90;;;;;;5051464;28;20032;-77
2022/02/12 04:44:15;;;;;;;14.70;3.40;;;2.60;99.90;;;;;;5051681;28;20036;-80
2022/02/12 04:46:40;;;;;;;11.87;3.30;;;2.70;99.90;;;;;;5052046;28;20040;-77
2022/02/12 04:49:06;;;;;;;8.83;3.00;;;2.70;99.90;;;;;;5051856;28;20063;-77
2022/02/12 04:51:32;;;;;;;15.27;3.87;;;2.70;99.90;;;;;;5051514;28;20045;-77
2022/02/12 04:53:59;;;;;;;10.67;3.60;;;2.70;99.90;;;;;;5052019;28;20041;-77
2022/02/12 04:56:26;;;;;;;13.10;3.87;;;2.70;99.90;;;;;;5050805;28;20069;-77
2022/02/12 04:58:52;;;;;;;12.97;3.80;;;2.60;99.90;;;;;;5051151;28;20036;-77
2022/02/12 05:01:21;;;;;;;15.87;3.90;;;2.70;99.90;;;;;;5051444;28;20052;-77
2022/02/12 05:03:49;;;;;;;12.85;3.45;;;2.60;99.90;;;;;;5051334;28;20397;-76
2022/02/12 05:06:15;;;;;;;16.97;4.10;;;2.70;99.90;;;;;;5049496;28;20063;-76
2022/02/12 05:08:41;;;;;;;16.90;3.73;;;2.60;99.90;;;;;;5051271;28;20075;-76
2022/02/12 05:11:07;;;;;;;11.63;3.43;;;2.70;99.90;;;;;;5050310;28;20060;-77
2022/02/12 05:13:32;;;;;;;16.20;3.80;;;2.70;99.90;;;;;;5051052;28;20086;-77
2022/02/12 05:15:58;;;;;;;15.17;3.63;;;2.60;99.90;;;;;;5051205;28;20131;-76
2022/02/12 05:18:24;;;;;;;13.40;4.33;;;2.60;99.90;;;;;;5051038;28;20029;-77
2022/02/12 05:20:50;;;;;;;13.87;3.33;;;2.60;99.90;;;;;;5051092;28;20093;-77
2022/02/12 05:23:15;;;;;;;12.77;3.10;;;2.60;99.90;;;;;;5050805;28;20099;-77
2022/02/12 05:25:41;;;;;;;13.10;3.97;;;2.70;99.90;;;;;;5049934;28;20063;-77
2022/02/12 05:28:07;;;;;;;14.43;3.50;;;2.60;99.90;;;;;;5051205;28;20029;-76
2022/02/12 05:30:33;;;;;;;14.93;3.43;;;2.60;99.90;;;;;;5050858;28;20024;-77
2022/02/12 05:32:59;;;;;;;14.90;3.00;;;2.50;99.90;;;;;;5051003;28;20033;-78
2022/02/12 05:35:26;;;;;;;15.40;3.10;;;2.60;99.90;;;;;;5041870;28;20025;-77
2022/02/12 05:37:52;;;;;;;18.37;3.97;;;2.60;99.90;;;;;;5050103;28;20082;-77
2022/02/12 05:40:18;;;;;;;18.57;4.63;;;2.60;99.90;;;;;;5048289;28;20040;-77
2022/02/12 05:42:44;;;;;;;16.10;3.60;;;2.60;99.90;;;;;;5051020;28;20025;-77
2022/02/12 05:45:10;;;;;;;14.83;3.50;;;2.60;99.90;;;;;;5050457;28;20385;-76
2022/02/12 05:47:40;;;;;;;16.60;3.70;;;2.60;99.90;;;;;;5050642;28;20107;-77
2022/02/12 05:50:07;;;;;;;11.83;3.53;;;2.60;99.90;;;;;;5050879;28;20388;-77
2022/02/12 05:52:33;;;;;;;13.90;3.70;;;2.60;99.90;;;;;;5050599;28;20056;-77
2022/02/12 05:54:59;;;;;;;12.93;3.67;;;2.60;99.90;;;;;;5047790;28;20453;-77
2022/02/12 05:57:24;;;;;;;15.60;3.57;;;2.60;99.90;;;;;;5050088;28;20083;-77
2022/02/12 05:59:50;;;;;;;14.30;3.83;;;2.60;99.90;;;;;;5049915;28;20029;-77
2022/02/12 06:02:16;;;;;;;13.03;3.47;;;2.60;99.90;;;;;;5050921;28;20094;-77
2022/02/12 06:04:41;;;;;;;14.47;3.57;;;2.60;99.90;;;;;;5050386;28;20029;-77
2022/02/12 06:07:07;;;;;;;14.40;3.83;;;2.50;99.90;;;;;;5050725;28;20033;-77
2022/02/12 06:09:33;;;;;;;13.00;3.50;;;2.60;99.90;;;;;;5078106;22;20137;-71
2022/02/12 06:11:59;;;;;;;14.27;3.43;;;2.60;99.90;;;;;;5012185;28;20022;-71
2022/02/12 06:14:24;;;;;;;11.50;2.97;;;2.60;99.90;;;;;;5011211;28;20022;-72
2022/02/12 06:16:54;;;;;;;13.97;3.67;;;2.60;99.90;;;;;;5012057;28;20033;-71
2022/02/12 06:19:20;;;;;;;14.35;3.35;;;2.50;99.90;;;;;;5010697;28;20037;-70
2022/02/12 06:21:45;;;;;;;14.77;3.33;;;2.50;99.90;;;;;;5011122;28;20037;-70
2022/02/12 06:24:13;;;;;;;9.43;3.07;;;2.50;99.90;;;;;;5008977;28;20034;-74
2022/02/12 06:26:43;;;;;;;19.23;3.03;;;2.50;99.90;;;;;;5010495;28;20074;-74
2022/02/12 06:29:10;;;;;;;18.00;3.47;;;2.50;99.90;;;;;;5010380;28;20420;-74
2022/02/12 06:31:36;;;;;;;16.60;3.40;;;2.60;99.90;;;;;;5010460;28;20085;-68
2022/02/12 06:34:02;;;;;;;13.23;3.50;;;2.50;99.90;;;;;;5010463;28;20121;-68
2022/02/12 06:36:28;;;;;;;16.40;3.17;;;2.50;99.90;;;;;;5010220;28;20113;-71
2022/02/12 06:38:53;;;;;;;11.20;2.83;;;2.50;99.90;;;;;;5010344;28;20064;-69
2022/02/12 06:41:19;;;;;;;12.70;3.60;;;2.50;99.90;;;;;;5010328;28;20075;-70
2022/02/12 06:43:45;;;;;;;16.47;3.63;;;2.50;99.90;;;;;;5008961;28;20038;-69
2022/02/12 06:46:11;;;;;;;14.87;3.63;;;2.50;99.90;;;;;;5010095;28;20041;-69
2022/02/12 06:48:37;;;;;;;14.10;3.20;;;2.50;99.90;;;;;;5010329;28;20040;-69
2022/02/12 06:51:03;;;;;;;13.37;3.10;;;2.50;99.90;;;;;;5010061;28;20368;-70
2022/02/12 06:53:28;;;;;;;13.03;3.47;;;2.50;99.90;;;;;;5008712;28;20034;-69
2022/02/12 06:55:54;;;;;;;12.27;3.33;;;2.50;99.90;;;;;;5009936;28;20501;-69
2022/02/12 06:58:20;;;;;;;11.03;3.03;;;2.50;99.90;;;;;;5010176;28;20072;-70
2022/02/12 07:00:46;;;;;;;11.80;3.00;;;2.50;99.90;;;;;;5010238;28;20057;-69
2022/02/12 07:03:12;;;;;;;11.90;3.30;;;2.50;99.90;;;;;;5009924;28;20105;-74
2022/02/12 07:05:38;;;;;;;12.33;3.27;;;2.50;99.90;;;;;;5010236;28;20269;-70
2022/02/12 07:08:05;;;;;;;13.17;3.80;;;2.40;99.90;;;;;;5010429;28;20121;-70
2022/02/12 07:10:34;;;;;;;11.53;3.40;;;2.50;99.90;;;;;;5010138;28;20052;-69
2022/02/12 07:13:00;;;;;;;14.57;3.90;;;2.50;99.90;;;;;;5008990;28;20053;-68
2022/02/12 07:15:26;;;;;;;13.73;3.47;;;2.50;99.90;;;;;;5010316;28;20069;-69
2022/02/12 07:17:53;;;;;;;12.40;3.50;;;2.50;99.90;;;;;;5010324;28;20304;-68
2022/02/12 07:20:19;;;;;;;8.90;2.40;;;2.50;99.90;;;;;;5010376;28;20065;-69
2022/02/12 07:22:44;;;;;;;9.00;3.10;;;2.60;99.90;;;;;;5010277;28;20049;-69
2022/02/12 07:25:12;;;;;;;12.80;4.13;;;2.60;99.90;;;;;;5008772;28;20041;-70
2022/02/12 07:27:38;;;;;;;12.50;2.77;;;2.60;99.90;;;;;;5010405;28;20065;-70
2022/02/12 07:30:06;;;;;;;12.87;3.17;;;2.60;99.90;;;;;;5011562;28;20109;-71
2022/02/12 07:32:33;;;;;;;12.30;2.90;;;2.60;99.90;;;;;;5012925;28;20104;-69
2022/02/12 07:34:59;;;;;;;14.97;3.20;;;2.60;99.90;;;;;;5013657;28;20393;-69
2022/02/12 07:37:25;;;;;;;10.63;3.30;;;2.60;99.90;;;;;;5013745;28;20017;-67
2022/02/12 07:39:50;;;;;;;13.97;3.50;;;2.60;99.90;;;;;;5013347;28;20486;-68
2022/02/12 07:42:16;;;;;;;16.80;3.43;;;2.70;99.90;;;;;;5014062;28;20030;-68
2022/02/12 07:44:42;;;;;;;15.43;3.37;;;2.80;99.90;;;;;;5013223;28;20442;-68
2022/02/12 07:47:08;;;;;;;15.43;3.03;;;2.90;99.90;;;;;;5013606;28;20103;-69
2022/02/12 07:49:33;;;;;;;13.47;3.40;;;2.90;99.90;;;;;;5011785;28;20049;-69
2022/02/12 07:51:59;;;;;;;12.03;3.33;;;2.90;99.90;;;;;;5013421;28;20030;-69
2022/02/12 07:54:25;;;;;;;9.43;3.40;;;2.90;99.90;;;;;;5013140;28;20125;-70
2022/02/12 07:56:54;;;;;;;15.13;3.40;;;2.90;99.90;;;;;;5013216;28;20034;-70
2022/02/12 07:59:21;;;;;;;12.43;3.47;;;2.90;99.90;;;;;;5013761;28;20026;-70
2022/02/12 08:01:47;;;;;;;10.60;2.93;;;2.90;99.90;;;;;;5012383;28;20048;-70
2022/02/12 08:04:13;;;;;;;13.20;3.27;;;2.90;99.90;;;;;;5012006;28;20510;-69
2022/02/12 08:09:23;;;;;;;14.73;3.70;;;3.00;99.90;;;;;;5013740;28;20119;-71
2022/02/12 08:11:53;;;;;;;16.10;3.40;;;3.00;99.90;;;;;;5014108;28;20068;-71
2022/02/12 08:14:19;;;;;;;14.60;4.03;;;3.00;99.90;;;;;;5014080;28;20038;-70
2022/02/12 08:16:45;;;;;;;18.37;3.27;;;3.10;99.90;;;;;;5011876;28;20419;-70
2022/02/12 08:19:10;;;;;;;14.47;3.07;;;3.10;99.90;;;;;;5013412;28;20040;-68
2022/02/12 08:21:36;;;;;;;13.83;3.73;;;3.10;99.90;;;;;;5013211;28;20164;-68
2022/02/12 08:24:02;;;;;;;17.23;3.97;;;3.10;99.90;;;;;;5011956;28;20419;-69
2022/02/12 08:26:28;;;;;;;19.67;3.97;;;3.10;99.90;;;;;;5011699;28;20041;-69
2022/02/12 08:28:54;;;;;;;14.63;3.40;;;3.10;99.90;;;;;;5012948;28;20045;-70
2022/02/12 08:31:20;;;;;;;17.80;3.90;;;3.10;99.90;;;;;;5012522;28;20091;-68
2022/02/12 08:33:46;;;;;;;15.53;3.37;;;3.20;99.90;;;;;;5012638;28;20128;-68
2022/02/12 08:36:11;;;;;;;11.53;3.50;;;3.30;99.90;;;;;;5012384;28;20052;-70
2022/02/12 08:38:37;;;;;;;12.47;4.10;;;3.10;99.90;;;;;;5012940;28;20030;-70
2022/02/12 08:41:03;;;;;;;17.47;4.27;;;3.20;99.90;;;;;;5012047;28;20117;-70
2022/02/12 08:43:29;;;;;;;12.40;3.67;;;3.20;99.90;;;;;;5012342;28;20049;-70
2022/02/12 08:45:54;;;;;;;14.33;3.83;;;3.20;99.90;;;;;;5012488;28;20026;-71
2022/02/12 08:48:20;;;;;;;12.90;3.90;;;3.30;99.90;;;;;;5012520;28;20040;-70
2022/02/12 08:50:46;;;;;;;16.73;5.03;;;3.30;99.90;;;;;;5012275;28;20056;-70
2022/02/12 08:53:12;;;;;;;18.93;5.80;;;3.30;99.90;;;;;;5012407;28;20116;-70
2022/02/12 08:55:38;;;;;;;13.83;4.30;;;3.30;99.90;;;;;;5012392;28;20033;-69
2022/02/12 08:58:04;;;;;;;12.93;2.90;;;3.30;99.90;;;;;;5011180;28;20029;-69
2022/02/12 09:00:30;;;;;;;15.47;3.90;;;3.40;99.90;;;;;;5012450;28;20084;-69
2022/02/12 09:02:56;;;;;;;12.73;3.27;;;3.40;99.90;;;;;;5012497;28;20042;-70
2022/02/12 09:05:21;;;;;;;16.17;3.67;;;3.40;99.90;;;;;;5012224;28;20033;-70
2022/02/12 09:07:47;;;;;;;18.60;3.40;;;3.50;99.90;;;;;;5012236;28;20038;-69
2022/02/12 09:10:13;;;;;;;17.03;3.63;;;3.50;99.90;;;;;;5012256;28;20052;-68
2022/02/12 09:12:39;;;;;;;8.77;3.37;;;3.50;99.90;;;;;;5012283;28;20394;-70
2022/02/12 09:15:05;;;;;;;14.80;3.90;;;3.50;99.90;;;;;;5010294;28;20121;-69
2022/02/12 09:17:31;;;;;;;11.80;3.30;;;3.60;99.90;;;;;;5012330;28;20049;-70
2022/02/12 09:19:58;;;;;;;11.13;2.77;;;3.60;99.90;;;;;;5011630;28;20416;-70
2022/02/12 09:22:25;;;;;;;15.93;4.03;;;3.70;99.90;;;;;;5012115;28;20478;-69
2022/02/12 09:24:51;;;;;;;10.17;2.97;;;3.70;99.90;;;;;;5010321;28;20570;-70
2022/02/12 09:27:17;;;;;;;11.70;2.87;;;3.70;99.90;;;;;;5010421;28;20053;-69
2022/02/12 09:29:43;;;;;;;11.37;2.87;;;3.70;99.90;;;;;;5011556;28;20066;-69
2022/02/12 09:32:09;;;;;;;14.00;3.20;;;3.70;99.90;;;;;;5011676;28;20038;-69
2022/02/12 09:34:35;;;;;;;14.53;3.37;;;3.70;99.90;;;;;;5011125;28;20321;-70
2022/02/12 09:37:01;;;;;;;19.33;4.07;;;3.80;99.90;;;;;;5011675;28;20064;-69
2022/02/12 09:39:27;;;;;;;12.77;3.00;;;3.80;99.90;;;;;;5011584;28;20029;-69
2022/02/12 09:41:54;;;;;;;15.53;3.60;;;3.80;99.90;;;;;;5011728;28;20061;-69
2022/02/12 09:44:19;;;;;;;15.10;3.37;;;3.80;99.90;;;;;;5011429;28;20030;-69
2022/02/12 09:46:51;;;;;;;14.33;3.40;;;3.90;99.90;;;;;;5011536;28;20493;-69
2022/02/12 09:49:17;;;;;;;18.30;3.70;;;3.90;99.90;;;;;;5011904;28;20033;-69
2022/02/12 09:51:44;;;;;;;12.20;3.07;;;3.90;99.90;;;;;;5011782;28;20394;-69
2022/02/12 09:54:10;;;;;;;13.40;3.17;;;3.90;99.90;;;;;;5010471;28;20038;-69
2022/02/12 09:56:36;;;;;;;14.77;4.77;;;3.90;99.90;;;;;;5011424;28;20490;-69
2022/02/12 09:59:02;;;;;;;13.93;4.97;;;3.90;99.90;;;;;;5011344;28;20252;-69
2022/02/12 10:01:28;;;;;;;15.33;4.47;;;4.00;99.90;;;;;;5009595;28;20335;-69
2022/02/12 10:03:54;;;;;;;13.57;3.47;;;4.00;99.90;;;;;;5011126;28;20037;-69
2022/02/12 10:06:41;;;;;;;16.00;3.70;;;4.00;99.90;;;;;;5011061;28;20050;-69
2022/02/12 10:09:09;;;;;;;15.43;3.50;;;4.10;99.90;;;;;;5011092;28;20462;-69
2022/02/12 10:11:43;;;;;;;12.60;3.20;;;4.10;99.90;;;;;;5011470;28;20076;-70
2022/02/12 10:14:21;;;;;;;13.20;3.60;;;4.10;99.90;;;;;;5010928;28;20033;-70
2022/02/12 10:16:58;;;;;;;13.70;3.20;;;4.10;99.90;;;;;;5011030;28;20109;-70
2022/02/12 10:19:32;;;;;;;13.63;3.83;;;4.20;99.90;;;;;;5010999;28;20038;-70
2022/02/12 10:22:08;;;;;;;14.00;3.80;;;4.20;99.90;;;;;;5011162;28;20108;-70
2022/02/12 10:24:55;;;;;;;13.80;3.30;;;4.20;99.90;;;;;;5010834;28;20124;-70
2022/02/12 10:27:23;;;;;;;13.87;3.10;;;4.20;99.90;;;;;;5009580;28;20037;-70
2022/02/12 10:29:51;;;;;;;15.53;2.93;;;4.20;99.90;;;;;;5010578;28;20072;-69
2022/02/12 10:32:18;;;;;;;12.97;3.37;;;4.30;99.90;;;;;;5009406;28;20128;-70
2022/02/12 10:34:46;;;;;;;17.70;3.73;;;4.30;99.90;;;;;;5010330;28;20467;-69
2022/02/12 10:37:23;;;;;;;11.60;2.83;;;4.40;99.90;;;;;;5010953;28;20062;-68
2022/02/12 10:39:53;;;;;;;11.37;3.10;;;4.40;99.90;;;;;;5010753;28;20034;-70
2022/02/12 10:42:20;;;;;;;16.57;3.77;;;4.50;99.90;;;;;;5010755;28;20030;-70
2022/02/12 10:44:46;;;;;;;15.07;3.37;;;4.60;99.90;;;;;;5010541;28;20022;-70
2022/02/12 10:47:13;;;;;;;13.07;3.20;;;4.60;99.90;;;;;;5010917;28;20026;-68
2022/02/12 10:49:43;;;;;;;17.10;4.20;;;4.70;99.90;;;;;;5009314;28;20053;-68
2022/02/12 10:52:09;;;;;;;16.10;3.90;;;4.70;99.90;;;;;;5010826;28;20034;-68
2022/02/12 10:54:53;;;;;;;14.90;3.33;;;4.70;99.90;;;;;;5010190;28;20390;-69
2022/02/12 10:57:29;;;;;;;9.43;3.20;;;4.80;99.90;;;;;;5010683;28;20076;-70
2022/02/12 10:59:56;;;;;;;14.97;3.70;;;4.80;99.90;;;;;;5010498;28;20029;-68
2022/02/12 11:02:25;;;;;;;21.00;4.10;;;4.90;99.90;;;;;;5010434;28;20030;-68
2022/02/12 11:04:53;;;;;;;16.02;3.80;;;4.90;99.90;;;;;;5009949;28;20518;-68
2022/02/12 11:07:19;;;;;;;14.07;3.73;;;4.90;99.90;;;;;;5010553;28;20121;-68
2022/02/12 11:09:46;;;;;;;13.57;3.33;;;5.00;99.90;;;;;;5010151;28;20483;-68
2022/02/12 11:12:14;;;;;;;13.07;3.53;;;5.00;99.90;;;;;;5010159;28;20466;-71
2022/02/12 11:14:43;;;;;;;13.53;3.63;;;5.10;99.90;;;;;;5010045;28;20300;-68
2022/02/12 11:17:19;;;;;;;20.40;4.67;;;5.10;99.90;;;;;;5010172;28;20677;-68
2022/02/12 11:19:48;;;;;;;12.73;3.90;;;5.10;99.90;;;;;;5010151;28;20034;-68
2022/02/12 11:22:14;;;;;;;16.80;3.93;;;5.10;99.90;;;;;;5009985;28;20052;-69
2022/02/12 11:24:44;;;;;;;16.40;3.93;;;5.20;99.90;;;;;;5009989;28;20133;-68
2022/02/12 11:27:18;;;;;;;12.30;4.00;;;5.30;99.90;;;;;;5010123;28;20367;-68
2022/02/12 11:29:45;;;;;;;13.03;3.97;;;5.30;99.90;;;;;;5009550;28;20072;-68
2022/02/12 11:32:26;;;;;;;16.57;3.83;;;5.40;99.90;;;;;;5008349;28;20107;-68
2022/02/12 11:34:52;;;;;;;11.93;3.33;;;5.50;99.90;;;;;;5009739;28;20062;-71
2022/02/12 11:37:18;;;;;;;11.47;2.90;;;5.50;99.90;;;;;;5010053;28;20049;-69
2022/02/12 11:40:15;;;;;;;10.33;3.03;;;5.50;99.30;;;;;;5009778;28;20084;-70
2022/02/12 11:42:44;;;;;;;15.20;3.33;;;5.50;99.10;;;;;;5009803;28;20407;-71
2022/02/12 11:45:29;;;;;;;10.87;3.03;;;5.60;98.90;;;;;;5009638;28;20030;-70
2022/02/12 11:48:25;;;;;;;10.87;3.27;;;5.60;99.10;;;;;;5009918;28;20037;-70
2022/02/12 11:50:55;;;;;;;12.27;2.90;;;5.70;98.60;;;;;;5009822;28;20036;-70
2022/02/12 11:53:39;;;;;;;12.27;3.07;;;5.70;98.50;;;;;;5008498;28;20062;-70
2022/02/12 11:56:17;;;;;;;9.40;2.83;;;5.70;98.50;;;;;;5009639;28;20117;-70
2022/02/12 11:58:46;;;;;;;9.80;2.60;;;5.70;98.80;;;;;;5010020;28;20328;-70
2022/02/12 12:01:24;;;;;;;11.85;2.92;;;5.70;98.60;;;;;;5008406;28;20041;-70
2022/02/12 12:04:15;;;;;;;12.73;2.70;;;5.80;97.60;;;;;;5009942;28;20100;-69
2022/02/12 12:07:02;;;;;;;15.27;3.23;;;5.90;96.50;;;;;;5009929;28;20518;-70
2022/02/12 12:09:32;;;;;;;13.33;2.80;;;5.90;96.00;;;;;;5009527;28;20079;-70
2022/02/12 12:12:10;;;;;;;12.63;2.33;;;5.90;95.10;;;;;;5009522;28;20034;-70
2022/02/12 12:14:39;;;;;;;8.17;2.30;;;6.00;94.90;;;;;;5009192;28;20061;-70
2022/02/12 12:17:06;;;;;;;13.25;2.53;;;6.00;94.60;;;;;;5011291;28;20034;-70
2022/02/12 12:19:32;;;;;;;10.27;2.93;;;6.00;94.20;;;;;;5011850;28;20097;-70
2022/02/12 12:22:06;;;;;;;10.33;2.33;;;6.10;93.70;;;;;;5012956;28;20026;-70
2022/02/12 12:24:33;;;;;;;14.10;2.93;;;6.10;93.40;;;;;;5012798;28;20119;-70
2022/02/12 12:26:59;;;;;;;10.63;2.50;;;6.10;93.90;;;;;;5012983;28;20443;-70
2022/02/12 12:32:19;;;;;;;8.27;2.33;;;6.10;94.10;;;;;;5013134;28;20069;-69
2022/02/12 12:34:58;;;;;;;12.23;2.40;;;6.20;93.50;;;;;;5011164;28;20030;-70
2022/02/12 12:37:26;;;;;;;8.05;2.45;;;6.30;93.50;;;;;;5013064;28;20026;-70
2022/02/12 12:39:51;;;;;;;9.83;2.30;;;6.30;93.40;;;;;;5012623;28;20087;-70
2022/02/12 12:42:20;;;;;;;9.83;2.47;;;6.30;93.60;;;;;;5012729;28;20542;-70
2022/02/12 12:45:11;;;;;;;10.70;2.70;;;6.30;93.60;;;;;;5012614;28;20030;-70
2022/02/12 12:47:50;;;;;;;9.73;2.37;;;6.30;93.40;;;;;;4994906;28;20580;-70
2022/02/12 12:50:17;;;;;;;6.82;2.08;;;6.30;93.10;;;;;;5012439;28;20124;-70
2022/02/12 12:52:43;;;;;;;10.47;3.13;;;6.40;92.90;;;;;;5012684;28;20030;-70
2022/02/12 12:55:17;;;;;;;17.80;3.00;;;6.30;93.10;;;;;;5012275;28;20036;-69
2022/02/12 12:57:44;;;;;;;7.20;2.53;;;6.40;93.70;;;;;;5012334;28;20390;-70
2022/02/12 13:00:18;;;;;;;11.80;2.80;;;6.40;93.90;;;;;;5012158;28;20056;-69